sensor_id;sensor_type;location;lat;lon;timestamp;temperature;humidity
21805;DHT22;11064;47.102;15.452;2022-07-03T05:01:27;31.30;46.50
21805;DHT22;11064;47.102;15.452;2022-07-03T05:03:53;31.00;46.20
21805;DHT22;11064;47.102;15.452;2022-07-03T05:06:19;30.60;45.60
21805;DHT22;11064;47.102;15.452;2022-07-03T05:08:45;30.70;46.10
21805;DHT22;11064;47.102;15.452;2022-07-03T05:11:11;29.30;47.50
21805;DHT22;11064;47.102;15.452;2022-07-03T05:13:37;28.20;50.00
21805;DHT22;11064;47.102;15.452;2022-07-03T05:16:04;27.40;52.50
21805;DHT22;11064;47.102;15.452;2022-07-03T05:18:29;27.70;53.50
21805;DHT22;11064;47.102;15.452;2022-07-03T05:20:57;27.80;53.80
21805;DHT22;11064;47.102;15.452;2022-07-03T05:23:23;27.80;53.60
21805;DHT22;11064;47.102;15.452;2022-07-03T05:25:49;27.20;54.60
21805;DHT22;11064;47.102;15.452;2022-07-03T05:28:15;27.20;54.70
21805;DHT22;11064;47.102;15.452;2022-07-03T05:30:41;26.80;55.30
21805;DHT22;11064;47.102;15.452;2022-07-03T05:33:06;26.50;56.20
21805;DHT22;11064;47.102;15.452;2022-07-03T05:35:32;25.70;57.40
21805;DHT22;11064;47.102;15.452;2022-07-03T05:37:58;26.10;58.10
21805;DHT22;11064;47.102;15.452;2022-07-03T05:40:24;25.70;58.20
21805;DHT22;11064;47.102;15.452;2022-07-03T05:42:49;26.20;57.90
21805;DHT22;11064;47.102;15.452;2022-07-03T05:45:15;27.20;56.20
21805;DHT22;11064;47.102;15.452;2022-07-03T05:47:41;28.80;53.70
21805;DHT22;11064;47.102;15.452;2022-07-03T05:50:07;30.00;49.90
21805;DHT22;11064;47.102;15.452;2022-07-03T05:52:33;30.60;48.30
21805;DHT22;11064;47.102;15.452;2022-07-03T05:54:59;30.60;47.60
21805;DHT22;11064;47.102;15.452;2022-07-03T05:57:25;31.50;47.00
21805;DHT22;11064;47.102;15.452;2022-07-03T05:59:50;32.10;45.40
21805;DHT22;11064;47.102;15.452;2022-07-03T06:02:16;33.00;43.10
21805;DHT22;11064;47.102;15.452;2022-07-03T06:04:43;33.40;42.90
21805;DHT22;11064;47.102;15.452;2022-07-03T06:07:08;34.00;41.10
21805;DHT22;11064;47.102;15.452;2022-07-03T06:09:34;35.10;39.90
21805;DHT22;11064;47.102;15.452;2022-07-03T06:12:00;35.20;38.90
21805;DHT22;11064;47.102;15.452;2022-07-03T06:14:26;34.60;38.80
21805;DHT22;11064;47.102;15.452;2022-07-03T06:16:51;33.40;40.10
21805;DHT22;11064;47.102;15.452;2022-07-03T06:19:17;32.40;42.60
21805;DHT22;11064;47.102;15.452;2022-07-03T06:21:43;32.20;43.80
21805;DHT22;11064;47.102;15.452;2022-07-03T06:24:10;31.60;43.80
21805;DHT22;11064;47.102;15.452;2022-07-03T06:26:36;30.50;44.30
21805;DHT22;11064;47.102;15.452;2022-07-03T06:29:02;29.80;46.60
21805;DHT22;11064;47.102;15.452;2022-07-03T06:31:27;29.50;47.90
21805;DHT22;11064;47.102;15.452;2022-07-03T06:33:53;29.20;47.80
21805;DHT22;11064;47.102;15.452;2022-07-03T06:36:19;28.10;50.30
21805;DHT22;11064;47.102;15.452;2022-07-03T06:38:45;27.70;52.30
21805;DHT22;11064;47.102;15.452;2022-07-03T06:41:11;26.70;54.90
21805;DHT22;11064;47.102;15.452;2022-07-03T06:43:36;25.60;57.10
21805;DHT22;11064;47.102;15.452;2022-07-03T06:46:02;25.00;59.30
21805;DHT22;11064;47.102;15.452;2022-07-03T06:48:28;24.90;62.20
21805;DHT22;11064;47.102;15.452;2022-07-03T06:50:54;24.40;63.40
21805;DHT22;11064;47.102;15.452;2022-07-03T06:53:20;24.50;65.00
21805;DHT22;11064;47.102;15.452;2022-07-03T06:55:45;24.70;64.40
21805;DHT22;11064;47.102;15.452;2022-07-03T06:58:11;24.60;64.10
21805;DHT22;11064;47.102;15.452;2022-07-03T07:00:37;24.60;65.80
21805;DHT22;11064;47.102;15.452;2022-07-03T07:03:04;24.20;66.60
21805;DHT22;11064;47.102;15.452;2022-07-03T07:05:30;24.10;66.40
21805;DHT22;11064;47.102;15.452;2022-07-03T07:07:55;24.20;66.80
21805;DHT22;11064;47.102;15.452;2022-07-03T07:10:21;24.10;67.30
21805;DHT22;11064;47.102;15.452;2022-07-03T07:12:47;24.00;67.50
21805;DHT22;11064;47.102;15.452;2022-07-03T07:15:14;24.00;66.40
21805;DHT22;11064;47.102;15.452;2022-07-03T07:17:40;24.20;65.80
21805;DHT22;11064;47.102;15.452;2022-07-03T07:20:06;24.30;67.40
21805;DHT22;11064;47.102;15.452;2022-07-03T07:22:32;24.30;67.20
21805;DHT22;11064;47.102;15.452;2022-07-03T07:24:58;24.70;66.70
21805;DHT22;11064;47.102;15.452;2022-07-03T07:27:24;25.00;66.60
21805;DHT22;11064;47.102;15.452;2022-07-03T07:29:50;25.40;67.30
21805;DHT22;11064;47.102;15.452;2022-07-03T07:32:16;25.50;63.60
21805;DHT22;11064;47.102;15.452;2022-07-03T07:34:41;25.90;62.40
21805;DHT22;11064;47.102;15.452;2022-07-03T07:37:07;25.90;60.20
21805;DHT22;11064;47.102;15.452;2022-07-03T07:39:33;26.00;60.00
21805;DHT22;11064;47.102;15.452;2022-07-03T07:41:59;26.00;58.30
21805;DHT22;11064;47.102;15.452;2022-07-03T07:44:24;26.10;58.90
21805;DHT22;11064;47.102;15.452;2022-07-03T07:46:50;26.30;58.80
21805;DHT22;11064;47.102;15.452;2022-07-03T07:49:16;26.10;58.30
21805;DHT22;11064;47.102;15.452;2022-07-03T07:51:42;26.10;60.70
21805;DHT22;11064;47.102;15.452;2022-07-03T07:54:08;26.20;59.30
21805;DHT22;11064;47.102;15.452;2022-07-03T07:56:33;26.10;61.70
21805;DHT22;11064;47.102;15.452;2022-07-03T07:58:59;26.00;60.90
21805;DHT22;11064;47.102;15.452;2022-07-03T08:01:26;25.90;60.60
21805;DHT22;11064;47.102;15.452;2022-07-03T08:04:10;25.30;59.30
21805;DHT22;11064;47.102;15.452;2022-07-03T08:06:58;25.30;61.30
21805;DHT22;11064;47.102;15.452;2022-07-03T08:09:24;25.20;62.70
21805;DHT22;11064;47.102;15.452;2022-07-03T08:11:50;25.30;63.00
21805;DHT22;11064;47.102;15.452;2022-07-03T08:14:16;25.30;61.20
21805;DHT22;11064;47.102;15.452;2022-07-03T08:16:42;25.20;61.00
21805;DHT22;11064;47.102;15.452;2022-07-03T08:19:09;25.30;60.80
21805;DHT22;11064;47.102;15.452;2022-07-03T08:21:34;25.30;63.50
21805;DHT22;11064;47.102;15.452;2022-07-03T08:24:00;25.40;65.00
21805;DHT22;11064;47.102;15.452;2022-07-03T08:26:26;25.50;64.80
21805;DHT22;11064;47.102;15.452;2022-07-03T08:28:52;25.60;63.50
21805;DHT22;11064;47.102;15.452;2022-07-03T08:31:17;25.40;67.20
21805;DHT22;11064;47.102;15.452;2022-07-03T08:33:43;25.10;62.10
21805;DHT22;11064;47.102;15.452;2022-07-03T08:36:09;25.00;62.30
21805;DHT22;11064;47.102;15.452;2022-07-03T08:38:36;25.10;63.10
21805;DHT22;11064;47.102;15.452;2022-07-03T08:41:04;25.30;65.60
21805;DHT22;11064;47.102;15.452;2022-07-03T08:43:30;25.20;60.60
21805;DHT22;11064;47.102;15.452;2022-07-03T08:45:58;25.30;61.80
21805;DHT22;11064;47.102;15.452;2022-07-03T08:48:25;25.50;63.80
21805;DHT22;11064;47.102;15.452;2022-07-03T08:50:53;25.50;61.30
21805;DHT22;11064;47.102;15.452;2022-07-03T08:53:19;25.30;62.90
21805;DHT22;11064;47.102;15.452;2022-07-03T08:55:47;25.50;63.30
21805;DHT22;11064;47.102;15.452;2022-07-03T08:58:14;25.40;62.00
21805;DHT22;11064;47.102;15.452;2022-07-03T09:00:45;25.30;62.40
21805;DHT22;11064;47.102;15.452;2022-07-03T09:03:12;25.60;62.70
21805;DHT22;11064;47.102;15.452;2022-07-03T09:05:39;25.70;62.30
21805;DHT22;11064;47.102;15.452;2022-07-03T09:08:07;25.90;61.30
21805;DHT22;11064;47.102;15.452;2022-07-03T09:10:33;26.00;61.90
21805;DHT22;11064;47.102;15.452;2022-07-03T09:13:00;26.30;63.70
21805;DHT22;11064;47.102;15.452;2022-07-03T09:15:26;26.20;59.90
21805;DHT22;11064;47.102;15.452;2022-07-03T09:18:12;26.30;61.40
21805;DHT22;11064;47.102;15.452;2022-07-03T09:20:39;26.30;61.40
21805;DHT22;11064;47.102;15.452;2022-07-03T09:23:18;26.40;61.60
21805;DHT22;11064;47.102;15.452;2022-07-03T09:25:59;26.40;61.80
21805;DHT22;11064;47.102;15.452;2022-07-03T09:28:51;26.70;63.20
21805;DHT22;11064;47.102;15.452;2022-07-03T09:31:24;26.30;60.90
21805;DHT22;11064;47.102;15.452;2022-07-03T09:34:03;26.50;64.00
21805;DHT22;11064;47.102;15.452;2022-07-03T09:36:43;26.50;64.10
21805;DHT22;11064;47.102;15.452;2022-07-03T09:39:24;26.60;60.70
21805;DHT22;11064;47.102;15.452;2022-07-03T09:47:10;27.00;64.40
21805;DHT22;11064;47.102;15.452;2022-07-03T09:49:55;27.10;63.30
21805;DHT22;11064;47.102;15.452;2022-07-03T09:57:35;27.10;62.20
21805;DHT22;11064;47.102;15.452;2022-07-03T10:03:00;27.30;61.40
21805;DHT22;11064;47.102;15.452;2022-07-03T10:08:01;27.10;61.30
21805;DHT22;11064;47.102;15.452;2022-07-03T10:10:29;27.00;63.50
21805;DHT22;11064;47.102;15.452;2022-07-03T10:12:56;27.20;66.20
21805;DHT22;11064;47.102;15.452;2022-07-03T10:15:23;27.40;65.40
21805;DHT22;11064;47.102;15.452;2022-07-03T10:17:54;27.30;62.20
21805;DHT22;11064;47.102;15.452;2022-07-03T10:20:30;27.50;62.40
21805;DHT22;11064;47.102;15.452;2022-07-03T10:22:58;27.50;64.10
21805;DHT22;11064;47.102;15.452;2022-07-03T10:25:24;27.50;63.40
21805;DHT22;11064;47.102;15.452;2022-07-03T10:27:50;27.50;63.70
21805;DHT22;11064;47.102;15.452;2022-07-03T10:30:18;27.40;60.90
21805;DHT22;11064;47.102;15.452;2022-07-03T10:32:48;27.40;60.60
21805;DHT22;11064;47.102;15.452;2022-07-03T10:35:27;27.40;62.80
21805;DHT22;11064;47.102;15.452;2022-07-03T10:43:49;27.70;62.40
21805;DHT22;11064;47.102;15.452;2022-07-03T10:46:43;28.00;62.20
21805;DHT22;11064;47.102;15.452;2022-07-03T10:49:12;28.20;62.60
21805;DHT22;11064;47.102;15.452;2022-07-03T10:51:59;28.20;63.20
21805;DHT22;11064;47.102;15.452;2022-07-03T10:54:34;28.40;62.10
21805;DHT22;11064;47.102;15.452;2022-07-03T10:57:15;28.00;59.20
21805;DHT22;11064;47.102;15.452;2022-07-03T11:07:30;28.70;61.90
21805;DHT22;11064;47.102;15.452;2022-07-03T11:13:10;29.20;63.60
21805;DHT22;11064;47.102;15.452;2022-07-03T11:15:54;29.30;61.00
21805;DHT22;11064;47.102;15.452;2022-07-03T11:26:00;29.10;62.50
21805;DHT22;11064;47.102;15.452;2022-07-03T11:33:58;29.40;58.90
21805;DHT22;11064;47.102;15.452;2022-07-03T11:41:21;29.80;59.40
21805;DHT22;11064;47.102;15.452;2022-07-03T11:43:59;30.00;58.30
21805;DHT22;11064;47.102;15.452;2022-07-03T11:46:30;29.90;61.50
21805;DHT22;11064;47.102;15.452;2022-07-03T11:49:17;30.10;59.20
21805;DHT22;11064;47.102;15.452;2022-07-03T11:52:04;29.90;58.10
21805;DHT22;11064;47.102;15.452;2022-07-03T11:54:50;29.50;59.20
21805;DHT22;11064;47.102;15.452;2022-07-03T11:57:16;29.70;60.40
21805;DHT22;11064;47.102;15.452;2022-07-03T11:59:42;29.90;61.90
21805;DHT22;11064;47.102;15.452;2022-07-03T12:02:08;30.10;59.00
21805;DHT22;11064;47.102;15.452;2022-07-03T12:04:34;30.40;59.10
21805;DHT22;11064;47.102;15.452;2022-07-03T12:07:00;30.30;60.10
21805;DHT22;11064;47.102;15.452;2022-07-03T12:09:31;30.40;61.90
21805;DHT22;11064;47.102;15.452;2022-07-03T12:12:04;30.60;61.40
21805;DHT22;11064;47.102;15.452;2022-07-03T12:17:22;30.40;60.80
21805;DHT22;11064;47.102;15.452;2022-07-03T12:19:52;30.50;59.30
21805;DHT22;11064;47.102;15.452;2022-07-03T12:22:29;30.50;57.50
21805;DHT22;11064;47.102;15.452;2022-07-03T12:27:32;30.70;59.10
21805;DHT22;11064;47.102;15.452;2022-07-03T12:29:59;30.70;59.30
21805;DHT22;11064;47.102;15.452;2022-07-03T12:32:26;30.70;59.00
21805;DHT22;11064;47.102;15.452;2022-07-03T12:34:52;30.90;58.90
21805;DHT22;11064;47.102;15.452;2022-07-03T12:37:34;31.00;57.30
21805;DHT22;11064;47.102;15.452;2022-07-03T12:40:00;31.00;55.70
21805;DHT22;11064;47.102;15.452;2022-07-03T12:42:25;31.10;55.90
21805;DHT22;11064;47.102;15.452;2022-07-03T12:47:21;31.10;57.70
21805;DHT22;11064;47.102;15.452;2022-07-03T12:50:03;30.90;58.30
21805;DHT22;11064;47.102;15.452;2022-07-03T12:52:31;31.00;57.20
21805;DHT22;11064;47.102;15.452;2022-07-03T12:54:59;31.00;55.90
21805;DHT22;11064;47.102;15.452;2022-07-03T12:57:25;31.10;56.10
21805;DHT22;11064;47.102;15.452;2022-07-03T13:00:16;31.20;56.00
21805;DHT22;11064;47.102;15.452;2022-07-03T13:02:48;31.10;55.40
21805;DHT22;11064;47.102;15.452;2022-07-03T13:05:22;31.20;55.40
21805;DHT22;11064;47.102;15.452;2022-07-03T13:07:54;31.10;57.10
21805;DHT22;11064;47.102;15.452;2022-07-03T13:10:22;31.10;57.90
21805;DHT22;11064;47.102;15.452;2022-07-03T13:12:58;31.10;55.00
21805;DHT22;11064;47.102;15.452;2022-07-03T13:15:29;31.30;55.40
21805;DHT22;11064;47.102;15.452;2022-07-03T13:22:51;31.70;56.00
21805;DHT22;11064;47.102;15.452;2022-07-03T13:25:18;31.50;54.50
21805;DHT22;11064;47.102;15.452;2022-07-03T13:27:44;31.40;52.70
21805;DHT22;11064;47.102;15.452;2022-07-03T13:30:15;31.10;53.50
21805;DHT22;11064;47.102;15.452;2022-07-03T13:32:42;31.20;55.30
21805;DHT22;11064;47.102;15.452;2022-07-03T13:35:08;31.30;55.60
21805;DHT22;11064;47.102;15.452;2022-07-03T13:37:34;31.40;54.90
21805;DHT22;11064;47.102;15.452;2022-07-03T13:40:02;31.10;55.50
21805;DHT22;11064;47.102;15.452;2022-07-03T13:42:29;31.20;55.20
21805;DHT22;11064;47.102;15.452;2022-07-03T13:44:55;31.20;55.60
21805;DHT22;11064;47.102;15.452;2022-07-03T13:47:20;31.50;55.60
21805;DHT22;11064;47.102;15.452;2022-07-03T13:49:46;31.30;55.20
21805;DHT22;11064;47.102;15.452;2022-07-03T13:52:12;31.40;54.40
21805;DHT22;11064;47.102;15.452;2022-07-03T13:54:38;31.50;53.80
21805;DHT22;11064;47.102;15.452;2022-07-03T13:57:04;31.50;53.70
21805;DHT22;11064;47.102;15.452;2022-07-03T13:59:30;31.40;54.60
21805;DHT22;11064;47.102;15.452;2022-07-03T14:01:57;31.50;55.30
21805;DHT22;11064;47.102;15.452;2022-07-03T14:04:23;31.50;53.90
21805;DHT22;11064;47.102;15.452;2022-07-03T14:06:49;31.80;53.90
21805;DHT22;11064;47.102;15.452;2022-07-03T14:09:15;31.70;53.60
21805;DHT22;11064;47.102;15.452;2022-07-03T14:11:41;31.70;53.80
21805;DHT22;11064;47.102;15.452;2022-07-03T14:14:07;31.70;54.20
21805;DHT22;11064;47.102;15.452;2022-07-03T14:16:33;31.70;54.30
21805;DHT22;11064;47.102;15.452;2022-07-03T14:18:58;31.70;54.20
21805;DHT22;11064;47.102;15.452;2022-07-03T14:21:24;31.90;54.50
21805;DHT22;11064;47.102;15.452;2022-07-03T14:23:51;32.00;54.10
21805;DHT22;11064;47.102;15.452;2022-07-03T14:26:17;32.00;54.70
21805;DHT22;11064;47.102;15.452;2022-07-03T14:29:02;32.10;53.60
21805;DHT22;11064;47.102;15.452;2022-07-03T14:31:46;32.10;52.90
21805;DHT22;11064;47.102;15.452;2022-07-03T14:34:30;31.80;52.00
21805;DHT22;11064;47.102;15.452;2022-07-03T14:36:56;31.60;51.60
21805;DHT22;11064;47.102;15.452;2022-07-03T14:39:22;31.60;51.50
21805;DHT22;11064;47.102;15.452;2022-07-03T14:41:48;31.70;52.80
21805;DHT22;11064;47.102;15.452;2022-07-03T14:44:14;31.90;53.30
21805;DHT22;11064;47.102;15.452;2022-07-03T14:46:41;32.00;52.60
21805;DHT22;11064;47.102;15.452;2022-07-03T14:49:06;32.10;52.90
21805;DHT22;11064;47.102;15.452;2022-07-03T14:51:32;32.40;52.70
21805;DHT22;11064;47.102;15.452;2022-07-03T14:53:58;32.40;51.30
21805;DHT22;11064;47.102;15.452;2022-07-03T14:56:24;32.60;51.10
21805;DHT22;11064;47.102;15.452;2022-07-03T14:58:50;32.60;52.20
21805;DHT22;11064;47.102;15.452;2022-07-03T15:01:19;32.60;51.10
21805;DHT22;11064;47.102;15.452;2022-07-03T15:04:09;32.30;52.50
21805;DHT22;11064;47.102;15.452;2022-07-03T15:06:38;32.60;52.40
21805;DHT22;11064;47.102;15.452;2022-07-03T15:09:04;32.30;51.20
21805;DHT22;11064;47.102;15.452;2022-07-03T15:11:47;32.30;51.70
21805;DHT22;11064;47.102;15.452;2022-07-03T15:14:37;32.50;51.40
21805;DHT22;11064;47.102;15.452;2022-07-03T15:17:06;32.40;51.20
21805;DHT22;11064;47.102;15.452;2022-07-03T15:19:34;32.20;51.50
21805;DHT22;11064;47.102;15.452;2022-07-03T15:22:01;32.50;51.20
21805;DHT22;11064;47.102;15.452;2022-07-03T15:24:30;33.10;49.90
21805;DHT22;11064;47.102;15.452;2022-07-03T15:26:56;34.00;48.10
21805;DHT22;11064;47.102;15.452;2022-07-03T15:29:23;35.00;46.80
21805;DHT22;11064;47.102;15.452;2022-07-03T15:31:49;35.80;44.90
21805;DHT22;11064;47.102;15.452;2022-07-03T15:34:15;36.50;43.60
21805;DHT22;11064;47.102;15.452;2022-07-03T15:39:53;36.90;42.00
21805;DHT22;11064;47.102;15.452;2022-07-03T15:42:42;36.80;41.20
21805;DHT22;11064;47.102;15.452;2022-07-03T15:51:23;36.50;43.10
21805;DHT22;11064;47.102;15.452;2022-07-03T15:53:59;37.00;41.40
21805;DHT22;11064;47.102;15.452;2022-07-03T15:56:36;37.50;41.30
21805;DHT22;11064;47.102;15.452;2022-07-03T15:59:06;37.80;40.80
21805;DHT22;11064;47.102;15.452;2022-07-03T16:01:47;37.60;40.60
21805;DHT22;11064;47.102;15.452;2022-07-03T16:04:36;37.30;40.70
21805;DHT22;11064;47.102;15.452;2022-07-03T16:07:09;36.70;41.80
21805;DHT22;11064;47.102;15.452;2022-07-03T16:09:36;36.00;42.70
21805;DHT22;11064;47.102;15.452;2022-07-03T16:12:02;35.40;44.50
21805;DHT22;11064;47.102;15.452;2022-07-03T16:14:31;35.50;44.70
21805;DHT22;11064;47.102;15.452;2022-07-03T16:17:02;35.60;43.60
21805;DHT22;11064;47.102;15.452;2022-07-03T16:19:31;35.70;43.70
21805;DHT22;11064;47.102;15.452;2022-07-03T16:21:59;35.30;44.20
21805;DHT22;11064;47.102;15.452;2022-07-03T16:24:28;34.80;44.50
21805;DHT22;11064;47.102;15.452;2022-07-03T16:26:54;34.50;45.90
21805;DHT22;11064;47.102;15.452;2022-07-03T16:29:20;33.80;46.50
21805;DHT22;11064;47.102;15.452;2022-07-03T16:31:49;33.50;48.10
21805;DHT22;11064;47.102;15.452;2022-07-03T16:34:49;33.10;48.90
21805;DHT22;11064;47.102;15.452;2022-07-03T16:40:18;32.60;50.10
21805;DHT22;11064;47.102;15.452;2022-07-03T16:42:45;32.70;50.40
21805;DHT22;11064;47.102;15.452;2022-07-03T16:45:13;33.10;49.60
21805;DHT22;11064;47.102;15.452;2022-07-03T16:47:44;33.70;48.90
21805;DHT22;11064;47.102;15.452;2022-07-03T16:50:15;33.60;48.10
21805;DHT22;11064;47.102;15.452;2022-07-03T16:52:47;33.40;48.70
21805;DHT22;11064;47.102;15.452;2022-07-03T16:55:13;32.50;50.30
21805;DHT22;11064;47.102;15.452;2022-07-03T16:57:48;32.10;52.20
21805;DHT22;11064;47.102;15.452;2022-07-03T17:00:20;31.50;52.90
21805;DHT22;11064;47.102;15.452;2022-07-03T17:02:47;31.00;54.40
21805;DHT22;11064;47.102;15.452;2022-07-03T17:05:17;30.70;55.20
21805;DHT22;11064;47.102;15.452;2022-07-03T17:07:46;30.50;56.20
21805;DHT22;11064;47.102;15.452;2022-07-03T17:10:13;30.40;56.50
21805;DHT22;11064;47.102;15.452;2022-07-03T17:12:44;30.30;57.10
21805;DHT22;11064;47.102;15.452;2022-07-03T17:15:15;30.30;57.60
21805;DHT22;11064;47.102;15.452;2022-07-03T17:17:45;30.10;57.90
21805;DHT22;11064;47.102;15.452;2022-07-03T17:20:21;30.20;57.50
21805;DHT22;11064;47.102;15.452;2022-07-03T17:22:48;30.20;57.90
21805;DHT22;11064;47.102;15.452;2022-07-03T17:25:25;30.10;58.30
21805;DHT22;11064;47.102;15.452;2022-07-03T17:27:59;29.90;59.20
21805;DHT22;11064;47.102;15.452;2022-07-03T17:33:08;29.20;60.10
21805;DHT22;11064;47.102;15.452;2022-07-03T17:35:38;28.90;61.10
21805;DHT22;11064;47.102;15.452;2022-07-03T17:38:12;28.70;62.40
21805;DHT22;11064;47.102;15.452;2022-07-03T17:40:40;28.60;63.70
21805;DHT22;11064;47.102;15.452;2022-07-03T17:43:06;28.50;63.90
21805;DHT22;11064;47.102;15.452;2022-07-03T17:45:32;28.30;64.80
21805;DHT22;11064;47.102;15.452;2022-07-03T17:48:00;28.10;65.20
21805;DHT22;11064;47.102;15.452;2022-07-03T17:50:29;28.10;66.70
21805;DHT22;11064;47.102;15.452;2022-07-03T17:52:56;27.90;68.00
21805;DHT22;11064;47.102;15.452;2022-07-03T17:55:24;27.60;68.00
21805;DHT22;11064;47.102;15.452;2022-07-03T17:57:51;27.50;68.50
21805;DHT22;11064;47.102;15.452;2022-07-03T18:00:22;27.30;68.20
21805;DHT22;11064;47.102;15.452;2022-07-03T18:02:51;27.10;69.10
21805;DHT22;11064;47.102;15.452;2022-07-03T18:05:18;26.90;70.00
21805;DHT22;11064;47.102;15.452;2022-07-03T18:07:57;26.80;71.20
21805;DHT22;11064;47.102;15.452;2022-07-03T18:10:44;26.70;71.70
21805;DHT22;11064;47.102;15.452;2022-07-03T18:13:28;26.60;72.50
21805;DHT22;11064;47.102;15.452;2022-07-03T18:15:58;26.50;72.00
21805;DHT22;11064;47.102;15.452;2022-07-03T18:20:53;26.20;72.60
21805;DHT22;11064;47.102;15.452;2022-07-03T18:23:20;26.10;73.90
21805;DHT22;11064;47.102;15.452;2022-07-03T18:25:48;25.90;74.60
21805;DHT22;11064;47.102;15.452;2022-07-03T18:28:15;25.80;76.80
21805;DHT22;11064;47.102;15.452;2022-07-03T18:30:43;25.60;78.00
21805;DHT22;11064;47.102;15.452;2022-07-03T18:33:10;25.40;78.70
21805;DHT22;11064;47.102;15.452;2022-07-03T18:35:39;25.30;79.90
21805;DHT22;11064;47.102;15.452;2022-07-03T18:38:14;25.10;80.30
21805;DHT22;11064;47.102;15.452;2022-07-03T18:40:40;24.90;81.60
21805;DHT22;11064;47.102;15.452;2022-07-03T18:43:07;24.80;82.50
21805;DHT22;11064;47.102;15.452;2022-07-03T18:45:41;24.60;83.80
21805;DHT22;11064;47.102;15.452;2022-07-03T18:48:07;24.40;85.40
21805;DHT22;11064;47.102;15.452;2022-07-03T18:50:34;24.30;86.70
21805;DHT22;11064;47.102;15.452;2022-07-03T18:53:37;24.10;87.50
21805;DHT22;11064;47.102;15.452;2022-07-03T18:56:10;24.00;89.50
21805;DHT22;11064;47.102;15.452;2022-07-03T19:01:08;23.80;90.30
21805;DHT22;11064;47.102;15.452;2022-07-03T19:03:50;23.70;91.10
21805;DHT22;11064;47.102;15.452;2022-07-03T19:06:24;23.60;91.20
21805;DHT22;11064;47.102;15.452;2022-07-03T19:09:04;23.60;91.70
21805;DHT22;11064;47.102;15.452;2022-07-03T19:11:40;23.50;91.90
21805;DHT22;11064;47.102;15.452;2022-07-03T19:14:12;23.40;92.70
21805;DHT22;11064;47.102;15.452;2022-07-03T19:16:46;23.40;92.70
21805;DHT22;11064;47.102;15.452;2022-07-03T19:19:14;23.30;92.60
21805;DHT22;11064;47.102;15.452;2022-07-03T19:21:42;23.30;92.50
21805;DHT22;11064;47.102;15.452;2022-07-03T19:24:09;23.20;93.10
21805;DHT22;11064;47.102;15.452;2022-07-03T19:26:35;23.20;93.60
21805;DHT22;11064;47.102;15.452;2022-07-03T19:29:02;23.10;94.00
21805;DHT22;11064;47.102;15.452;2022-07-03T19:31:28;23.00;94.80
21805;DHT22;11064;47.102;15.452;2022-07-03T19:33:54;22.90;95.40
21805;DHT22;11064;47.102;15.452;2022-07-03T19:36:19;22.80;96.00
21805;DHT22;11064;47.102;15.452;2022-07-03T19:38:48;22.80;96.00
21805;DHT22;11064;47.102;15.452;2022-07-03T19:41:14;22.80;96.80
21805;DHT22;11064;47.102;15.452;2022-07-03T19:43:41;22.70;96.70
21805;DHT22;11064;47.102;15.452;2022-07-03T19:46:07;22.70;96.90
21805;DHT22;11064;47.102;15.452;2022-07-03T19:48:33;22.70;97.50
21805;DHT22;11064;47.102;15.452;2022-07-03T19:51:00;22.60;97.90
21805;DHT22;11064;47.102;15.452;2022-07-03T19:53:25;22.60;97.50
21805;DHT22;11064;47.102;15.452;2022-07-03T19:55:52;22.60;97.90
21805;DHT22;11064;47.102;15.452;2022-07-03T19:58:18;22.60;97.80
21805;DHT22;11064;47.102;15.452;2022-07-03T20:00:44;22.60;97.80
21805;DHT22;11064;47.102;15.452;2022-07-03T20:03:10;22.60;98.10
21805;DHT22;11064;47.102;15.452;2022-07-03T20:05:38;22.50;98.40
21805;DHT22;11064;47.102;15.452;2022-07-03T20:08:05;22.50;98.70
21805;DHT22;11064;47.102;15.452;2022-07-03T20:10:30;22.50;99.60
21805;DHT22;11064;47.102;15.452;2022-07-03T20:12:57;22.50;99.90
21805;DHT22;11064;47.102;15.452;2022-07-03T20:15:23;22.60;99.80
21805;DHT22;11064;47.102;15.452;2022-07-03T20:17:49;22.60;99.70
21805;DHT22;11064;47.102;15.452;2022-07-03T20:20:20;22.50;99.90
21805;DHT22;11064;47.102;15.452;2022-07-03T20:22:47;22.50;99.90
21805;DHT22;11064;47.102;15.452;2022-07-03T20:25:13;22.40;99.90
21805;DHT22;11064;47.102;15.452;2022-07-03T20:27:39;22.40;99.90
21805;DHT22;11064;47.102;15.452;2022-07-03T20:30:05;22.30;99.90
21805;DHT22;11064;47.102;15.452;2022-07-03T20:32:31;22.30;99.90
21805;DHT22;11064;47.102;15.452;2022-07-03T20:35:02;22.30;99.90
21805;DHT22;11064;47.102;15.452;2022-07-03T20:37:30;22.20;99.90
21805;DHT22;11064;47.102;15.452;2022-07-03T20:39:56;22.20;99.90
21805;DHT22;11064;47.102;15.452;2022-07-03T20:42:22;22.10;99.90
21805;DHT22;11064;47.102;15.452;2022-07-03T20:44:48;22.10;99.90
21805;DHT22;11064;47.102;15.452;2022-07-03T20:47:16;22.00;99.90
21805;DHT22;11064;47.102;15.452;2022-07-03T20:49:42;22.10;99.90
21805;DHT22;11064;47.102;15.452;2022-07-03T20:52:08;22.00;99.90
21805;DHT22;11064;47.102;15.452;2022-07-03T20:54:34;21.90;99.90
21805;DHT22;11064;47.102;15.452;2022-07-03T20:56:59;21.80;99.90
21805;DHT22;11064;47.102;15.452;2022-07-03T20:59:30;21.70;99.90
21805;DHT22;11064;47.102;15.452;2022-07-03T21:01:57;21.60;99.90
21805;DHT22;11064;47.102;15.452;2022-07-03T21:04:23;21.50;99.90
21805;DHT22;11064;47.102;15.452;2022-07-03T21:06:49;21.50;99.90
21805;DHT22;11064;47.102;15.452;2022-07-03T21:09:15;21.70;99.90
21805;DHT22;11064;47.102;15.452;2022-07-03T21:11:41;21.80;99.90
21805;DHT22;11064;47.102;15.452;2022-07-03T21:14:12;21.80;99.90
21805;DHT22;11064;47.102;15.452;2022-07-03T21:16:44;21.80;99.90
21805;DHT22;11064;47.102;15.452;2022-07-03T21:19:12;21.80;99.90
21805;DHT22;11064;47.102;15.452;2022-07-03T21:21:39;21.80;99.90
21805;DHT22;11064;47.102;15.452;2022-07-03T21:24:07;21.70;99.90
21805;DHT22;11064;47.102;15.452;2022-07-03T21:26:45;21.70;99.90
21805;DHT22;11064;47.102;15.452;2022-07-03T21:29:13;21.70;99.90
21805;DHT22;11064;47.102;15.452;2022-07-03T21:31:40;21.70;99.90
21805;DHT22;11064;47.102;15.452;2022-07-03T21:34:06;21.70;99.90
21805;DHT22;11064;47.102;15.452;2022-07-03T21:36:32;21.70;99.90
21805;DHT22;11064;47.102;15.452;2022-07-03T21:38:58;21.70;99.90
21805;DHT22;11064;47.102;15.452;2022-07-03T21:41:24;21.70;99.90
21805;DHT22;11064;47.102;15.452;2022-07-03T21:43:49;21.80;99.90
21805;DHT22;11064;47.102;15.452;2022-07-03T21:46:15;21.80;99.90
21805;DHT22;11064;47.102;15.452;2022-07-03T21:48:41;21.80;99.90
21805;DHT22;11064;47.102;15.452;2022-07-03T21:51:08;21.80;99.90